Wilmington, DE (19806)

9:23 AM EDT on April 27, 2015 (GMT -0400)
The Highlands | | Change Station
CLOSE
Current Station
Personal Weather Station
Location: Wilmington, DE
Elevation: 207 ft
Nearby Weather Stations

Elev 207 ft 39.76 °N, 75.57 °W | Updated 3 seconds ago

Overcast
Overcast
54.0 °F
Feels Like 54.0 °F
N
2.9
Wind Variable Wind from SSW
Gusts 4.9 mph

Today
High -- | Low -- °F
--% Chance of Precip.
Yesterday
High -- | Low -- °F
Precip. -- in
6:08 AM 7:52 PM
Waxing Gibbous, 65% visible
Pressure 29.75 in
Visibility 10.0 miles
Clouds Overcast 8000 ft
Dew Point 34 °F
Humidity 46%
Rainfall 0.00 in
Snow Depth Not available.
UV 3.0 out of 12
Pollen 9.70 out of 12
Air Quality Not available.
Flu Activity Sporadic
METAR KILG 271251Z 31009KT 10SM OVC080 11/01 A2975 RMK AO2 SLP074 T01060011

More Conditions Fewer Conditions

Pressure 29.75 in
Visibility 10.0 miles
Clouds Overcast 8000 ft
Dew Point 34 °F
Humidity 46%
Rainfall 0.00 in
Snow Depth Not available.
UV 3.0 out of 12
Pollen 9.70 out of 12
Air Quality Not available.
Flu Activity Sporadic
METAR KILG 271251Z 31009KT 10SM OVC080 11/01 A2975 RMK AO2 SLP074 T01060011

More Conditions Fewer Conditions

10-Day Weather Forecast

Almanac

Astronomy

Apr. 27, 2015 Rise Set
Actual Time
Civil Twilight
Nautical Twilight
Astronomical Twilight
Moon
Length of Visible Light
Length of Day
Tomorrow will be .
, % of the Moon is Illuminated

Today's Extremes

State Highs State Lows

Community

WunderPhotos

Upload Photos

1,817,307 photos uploaded!

WunderBlogs® & News

Nearby

Air Quality

  Air Quality AQ Index Pollutant
Not available.

Snow Depth

Station Depth Elevation

Earthquake Activity

City Distance Mag. Time & Date
Minimum magnitude displayed is 2.5.

Coastal Water Temperatures

Place Temperature

Stations

Nearby Weather Stations

Station Location Temp. Windchill Dew Point Humidity Wind Precip. Elev Updated Type